sensor_id;sensor_type;location;lat;lon;timestamp;P1;durP1;ratioP1;P2;durP2;ratioP2
50739;SDS011;36704;52.524;17.580;2023-03-13T00:03:08;20.48;;;9.30;;
50739;SDS011;36704;52.524;17.580;2023-03-13T00:06:02;23.48;;;11.02;;
50739;SDS011;36704;52.524;17.580;2023-03-13T00:08:52;38.63;;;16.95;;
50739;SDS011;36704;52.524;17.580;2023-03-13T00:11:44;38.25;;;15.65;;
50739;SDS011;36704;52.524;17.580;2023-03-13T00:14:34;35.45;;;15.95;;
50739;SDS011;36704;52.524;17.580;2023-03-13T00:17:20;26.92;;;13.43;;
50739;SDS011;36704;52.524;17.580;2023-03-13T00:20:10;39.53;;;17.13;;
50739;SDS011;36704;52.524;17.580;2023-03-13T00:26:43;34.70;;;15.25;;
50739;SDS011;36704;52.524;17.580;2023-03-13T00:53:13;29.48;;;13.77;;
50739;SDS011;36704;52.524;17.580;2023-03-13T00:56:24;27.63;;;12.45;;
50739;SDS011;36704;52.524;17.580;2023-03-13T00:59:18;23.25;;;11.82;;
50739;SDS011;36704;52.524;17.580;2023-03-13T01:02:20;24.73;;;11.60;;
50739;SDS011;36704;52.524;17.580;2023-03-13T01:05:14;24.02;;;12.13;;
50739;SDS011;36704;52.524;17.580;2023-03-13T01:08:02;22.27;;;12.05;;
50739;SDS011;36704;52.524;17.580;2023-03-13T01:11:04;21.70;;;11.05;;
50739;SDS011;36704;52.524;17.580;2023-03-13T01:13:58;24.20;;;12.65;;
50739;SDS011;36704;52.524;17.580;2023-03-13T01:16:54;25.35;;;11.65;;
50739;SDS011;36704;52.524;17.580;2023-03-13T01:19:58;22.65;;;11.35;;
50739;SDS011;36704;52.524;17.580;2023-03-13T01:22:49;20.63;;;10.65;;
50739;SDS011;36704;52.524;17.580;2023-03-13T01:25:39;22.88;;;10.77;;
50739;SDS011;36704;52.524;17.580;2023-03-13T01:28:35;19.38;;;10.43;;
50739;SDS011;36704;52.524;17.580;2023-03-13T01:31:36;14.90;;;9.75;;
50739;SDS011;36704;52.524;17.580;2023-03-13T01:34:45;18.00;;;10.73;;
50739;SDS011;36704;52.524;17.580;2023-03-13T01:37:35;16.38;;;11.07;;
50739;SDS011;36704;52.524;17.580;2023-03-13T01:40:37;19.27;;;11.38;;
50739;SDS011;36704;52.524;17.580;2023-03-13T01:47:03;20.63;;;13.02;;
50739;SDS011;36704;52.524;17.580;2023-03-13T01:50:16;20.52;;;11.48;;
50739;SDS011;36704;52.524;17.580;2023-03-13T01:53:16;26.73;;;14.20;;
50739;SDS011;36704;52.524;17.580;2023-03-13T01:56:16;25.17;;;13.32;;
50739;SDS011;36704;52.524;17.580;2023-03-13T01:59:11;25.63;;;13.75;;
50739;SDS011;36704;52.524;17.580;2023-03-13T02:05:21;21.67;;;13.48;;
50739;SDS011;36704;52.524;17.580;2023-03-13T02:08:24;22.52;;;13.88;;
50739;SDS011;36704;52.524;17.580;2023-03-13T02:11:34;21.45;;;13.25;;
50739;SDS011;36704;52.524;17.580;2023-03-13T02:14:32;25.00;;;13.82;;
50739;SDS011;36704;52.524;17.580;2023-03-13T02:17:24;27.75;;;15.80;;
50739;SDS011;36704;52.524;17.580;2023-03-13T02:20:25;26.95;;;14.32;;
50739;SDS011;36704;52.524;17.580;2023-03-13T02:23:27;24.90;;;14.75;;
50739;SDS011;36704;52.524;17.580;2023-03-13T02:26:32;24.30;;;14.55;;
50739;SDS011;36704;52.524;17.580;2023-03-13T02:29:19;22.45;;;13.13;;
50739;SDS011;36704;52.524;17.580;2023-03-13T02:32:08;23.27;;;14.27;;
50739;SDS011;36704;52.524;17.580;2023-03-13T02:35:00;25.05;;;14.40;;
50739;SDS011;36704;52.524;17.580;2023-03-13T02:37:59;28.13;;;14.65;;
50739;SDS011;36704;52.524;17.580;2023-03-13T02:40:58;28.45;;;15.80;;
50739;SDS011;36704;52.524;17.580;2023-03-13T02:46:43;24.65;;;13.65;;
50739;SDS011;36704;52.524;17.580;2023-03-13T02:49:49;26.52;;;14.35;;
50739;SDS011;36704;52.524;17.580;2023-03-13T02:52:45;25.88;;;15.32;;
50739;SDS011;36704;52.524;17.580;2023-03-13T02:55:44;25.38;;;15.13;;
50739;SDS011;36704;52.524;17.580;2023-03-13T02:58:38;31.23;;;19.40;;
50739;SDS011;36704;52.524;17.580;2023-03-13T03:01:38;32.92;;;23.05;;
50739;SDS011;36704;52.524;17.580;2023-03-13T03:04:29;30.27;;;20.50;;
50739;SDS011;36704;52.524;17.580;2023-03-13T03:07:19;62.45;;;36.63;;
50739;SDS011;36704;52.524;17.580;2023-03-13T03:10:14;49.05;;;34.28;;
50739;SDS011;36704;52.524;17.580;2023-03-13T03:13:02;36.97;;;23.00;;
50739;SDS011;36704;52.524;17.580;2023-03-13T03:15:49;47.40;;;29.98;;
50739;SDS011;36704;52.524;17.580;2023-03-13T03:18:41;46.13;;;32.83;;
50739;SDS011;36704;52.524;17.580;2023-03-13T03:24:23;30.83;;;19.13;;
50739;SDS011;36704;52.524;17.580;2023-03-13T03:27:20;30.65;;;19.05;;
50739;SDS011;36704;52.524;17.580;2023-03-13T03:30:20;36.78;;;23.20;;
50739;SDS011;36704;52.524;17.580;2023-03-13T03:33:41;80.57;;;42.13;;
50739;SDS011;36704;52.524;17.580;2023-03-13T03:36:33;35.58;;;21.48;;
50739;SDS011;36704;52.524;17.580;2023-03-13T03:39:22;30.58;;;17.92;;
50739;SDS011;36704;52.524;17.580;2023-03-13T03:42:21;28.25;;;16.35;;
50739;SDS011;36704;52.524;17.580;2023-03-13T03:45:25;36.50;;;19.65;;
50739;SDS011;36704;52.524;17.580;2023-03-13T03:48:24;29.65;;;17.63;;
50739;SDS011;36704;52.524;17.580;2023-03-13T03:51:34;33.83;;;20.52;;
50739;SDS011;36704;52.524;17.580;2023-03-13T03:54:27;29.05;;;18.55;;
50739;SDS011;36704;52.524;17.580;2023-03-13T03:57:22;31.52;;;17.40;;
50739;SDS011;36704;52.524;17.580;2023-03-13T04:03:26;24.77;;;15.95;;
50739;SDS011;36704;52.524;17.580;2023-03-13T04:06:25;27.95;;;15.82;;
50739;SDS011;36704;52.524;17.580;2023-03-13T04:09:23;24.92;;;15.48;;
50739;SDS011;36704;52.524;17.580;2023-03-13T04:12:22;23.27;;;14.63;;
50739;SDS011;36704;52.524;17.580;2023-03-13T04:15:14;26.55;;;15.20;;
50739;SDS011;36704;52.524;17.580;2023-03-13T04:18:23;24.13;;;14.00;;
50739;SDS011;36704;52.524;17.580;2023-03-13T04:21:27;22.55;;;13.75;;
50739;SDS011;36704;52.524;17.580;2023-03-13T04:24:28;21.95;;;13.82;;
50739;SDS011;36704;52.524;17.580;2023-03-13T04:27:24;24.38;;;14.93;;
50739;SDS011;36704;52.524;17.580;2023-03-13T04:30:19;23.65;;;14.50;;
50739;SDS011;36704;52.524;17.580;2023-03-13T04:33:33;21.75;;;13.35;;
50739;SDS011;36704;52.524;17.580;2023-03-13T04:36:57;20.67;;;12.98;;
50739;SDS011;36704;52.524;17.580;2023-03-13T04:40:39;25.58;;;13.60;;
50739;SDS011;36704;52.524;17.580;2023-03-13T04:43:45;25.48;;;12.48;;
50739;SDS011;36704;52.524;17.580;2023-03-13T04:47:06;20.63;;;12.57;;
50739;SDS011;36704;52.524;17.580;2023-03-13T04:50:27;22.92;;;13.57;;
50739;SDS011;36704;52.524;17.580;2023-03-13T04:53:41;25.90;;;13.95;;
50739;SDS011;36704;52.524;17.580;2023-03-13T04:57:27;18.20;;;11.60;;
50739;SDS011;36704;52.524;17.580;2023-03-13T05:00:58;20.98;;;12.20;;
50739;SDS011;36704;52.524;17.580;2023-03-13T05:04:27;26.05;;;15.40;;
50739;SDS011;36704;52.524;17.580;2023-03-13T05:07:32;32.20;;;20.30;;
50739;SDS011;36704;52.524;17.580;2023-03-13T05:11:08;24.05;;;15.00;;
50739;SDS011;36704;52.524;17.580;2023-03-13T05:14:20;24.27;;;12.30;;
50739;SDS011;36704;52.524;17.580;2023-03-13T05:17:44;21.25;;;11.93;;
50739;SDS011;36704;52.524;17.580;2023-03-13T05:20:58;18.27;;;11.50;;
50739;SDS011;36704;52.524;17.580;2023-03-13T05:24:06;19.45;;;11.00;;
50739;SDS011;36704;52.524;17.580;2023-03-13T05:26:59;20.63;;;12.63;;
50739;SDS011;36704;52.524;17.580;2023-03-13T05:29:52;20.77;;;13.13;;
50739;SDS011;36704;52.524;17.580;2023-03-13T05:38:21;18.88;;;9.85;;
50739;SDS011;36704;52.524;17.580;2023-03-13T05:41:28;18.55;;;11.50;;
50739;SDS011;36704;52.524;17.580;2023-03-13T05:44:46;15.95;;;9.88;;
50739;SDS011;36704;52.524;17.580;2023-03-13T05:48:02;17.88;;;11.07;;
50739;SDS011;36704;52.524;17.580;2023-03-13T05:51:13;16.65;;;10.93;;
50739;SDS011;36704;52.524;17.580;2023-03-13T05:54:18;21.48;;;13.55;;
50739;SDS011;36704;52.524;17.580;2023-03-13T05:57:38;18.55;;;11.55;;
50739;SDS011;36704;52.524;17.580;2023-03-13T06:00:51;24.27;;;10.85;;
50739;SDS011;36704;52.524;17.580;2023-03-13T06:03:56;19.00;;;10.95;;
50739;SDS011;36704;52.524;17.580;2023-03-13T06:06:46;20.92;;;11.38;;
50739;SDS011;36704;52.524;17.580;2023-03-13T06:09:38;25.17;;;11.52;;
50739;SDS011;36704;52.524;17.580;2023-03-13T06:12:48;29.05;;;13.90;;
50739;SDS011;36704;52.524;17.580;2023-03-13T06:16:32;31.60;;;14.02;;
50739;SDS011;36704;52.524;17.580;2023-03-13T06:21:17;21.55;;;12.02;;
50739;SDS011;36704;52.524;17.580;2023-03-13T06:24:57;19.85;;;11.63;;
50739;SDS011;36704;52.524;17.580;2023-03-13T06:27:44;22.67;;;12.63;;
50739;SDS011;36704;52.524;17.580;2023-03-13T06:30:34;18.80;;;11.50;;
50739;SDS011;36704;52.524;17.580;2023-03-13T06:33:26;21.27;;;11.15;;
50739;SDS011;36704;52.524;17.580;2023-03-13T06:36:13;18.42;;;10.57;;
50739;SDS011;36704;52.524;17.580;2023-03-13T06:39:03;19.42;;;10.85;;
50739;SDS011;36704;52.524;17.580;2023-03-13T06:41:50;14.43;;;9.10;;
50739;SDS011;36704;52.524;17.580;2023-03-13T06:44:37;18.63;;;8.57;;
50739;SDS011;36704;52.524;17.580;2023-03-13T06:47:23;16.50;;;8.65;;
50739;SDS011;36704;52.524;17.580;2023-03-13T06:50:12;18.92;;;9.15;;
50739;SDS011;36704;52.524;17.580;2023-03-13T06:52:59;18.10;;;9.90;;
50739;SDS011;36704;52.524;17.580;2023-03-13T06:55:52;20.48;;;9.80;;
50739;SDS011;36704;52.524;17.580;2023-03-13T07:01:27;19.20;;;9.43;;
50739;SDS011;36704;52.524;17.580;2023-03-13T07:04:13;20.27;;;11.73;;
50739;SDS011;36704;52.524;17.580;2023-03-13T07:07:02;17.60;;;9.75;;
50739;SDS011;36704;52.524;17.580;2023-03-13T07:10:04;18.63;;;10.27;;
50739;SDS011;36704;52.524;17.580;2023-03-13T07:12:53;17.40;;;10.00;;
50739;SDS011;36704;52.524;17.580;2023-03-13T07:15:46;17.35;;;9.13;;
50739;SDS011;36704;52.524;17.580;2023-03-13T07:18:33;16.50;;;8.55;;
50739;SDS011;36704;52.524;17.580;2023-03-13T07:21:20;20.40;;;9.35;;
50739;SDS011;36704;52.524;17.580;2023-03-13T07:24:07;16.33;;;9.15;;
50739;SDS011;36704;52.524;17.580;2023-03-13T07:26:53;19.38;;;9.48;;
50739;SDS011;36704;52.524;17.580;2023-03-13T07:29:52;23.10;;;10.88;;
50739;SDS011;36704;52.524;17.580;2023-03-13T07:32:39;18.85;;;9.65;;
50739;SDS011;36704;52.524;17.580;2023-03-13T07:35:29;17.17;;;9.15;;
50739;SDS011;36704;52.524;17.580;2023-03-13T07:38:19;16.00;;;9.00;;
50739;SDS011;36704;52.524;17.580;2023-03-13T07:43:56;19.02;;;10.60;;
50739;SDS011;36704;52.524;17.580;2023-03-13T07:46:42;20.42;;;8.20;;
50739;SDS011;36704;52.524;17.580;2023-03-13T07:49:30;19.33;;;9.25;;
50739;SDS011;36704;52.524;17.580;2023-03-13T07:52:17;15.27;;;8.35;;
50739;SDS011;36704;52.524;17.580;2023-03-13T07:55:03;17.05;;;8.23;;
50739;SDS011;36704;52.524;17.580;2023-03-13T07:57:50;18.60;;;8.43;;
50739;SDS011;36704;52.524;17.580;2023-03-13T08:00:39;15.52;;;8.02;;
50739;SDS011;36704;52.524;17.580;2023-03-13T08:03:29;17.92;;;6.75;;
50739;SDS011;36704;52.524;17.580;2023-03-13T08:06:19;16.13;;;8.18;;
50739;SDS011;36704;52.524;17.580;2023-03-13T08:09:17;16.75;;;8.25;;
50739;SDS011;36704;52.524;17.580;2023-03-13T08:12:04;21.23;;;8.18;;
50739;SDS011;36704;52.524;17.580;2023-03-13T08:14:53;22.05;;;9.30;;
50739;SDS011;36704;52.524;17.580;2023-03-13T08:17:42;19.95;;;7.40;;
50739;SDS011;36704;52.524;17.580;2023-03-13T08:20:34;16.13;;;8.07;;
50739;SDS011;36704;52.524;17.580;2023-03-13T08:23:21;25.13;;;12.02;;
50739;SDS011;36704;52.524;17.580;2023-03-13T08:26:17;27.67;;;10.35;;
50739;SDS011;36704;52.524;17.580;2023-03-13T08:29:13;22.95;;;8.88;;
50739;SDS011;36704;52.524;17.580;2023-03-13T08:32:03;17.65;;;8.27;;
50739;SDS011;36704;52.524;17.580;2023-03-13T08:34:54;18.98;;;7.50;;
50739;SDS011;36704;52.524;17.580;2023-03-13T08:37:50;19.75;;;7.90;;
50739;SDS011;36704;52.524;17.580;2023-03-13T08:40:37;19.10;;;7.40;;
50739;SDS011;36704;52.524;17.580;2023-03-13T08:43:27;18.23;;;7.70;;
50739;SDS011;36704;52.524;17.580;2023-03-13T08:46:17;18.38;;;8.30;;
50739;SDS011;36704;52.524;17.580;2023-03-13T08:49:08;15.13;;;7.15;;
50739;SDS011;36704;52.524;17.580;2023-03-13T08:51:57;17.42;;;8.15;;
50739;SDS011;36704;52.524;17.580;2023-03-13T08:54:46;22.17;;;10.07;;
50739;SDS011;36704;52.524;17.580;2023-03-13T08:57:36;13.40;;;8.30;;
50739;SDS011;36704;52.524;17.580;2023-03-13T09:00:26;15.25;;;7.78;;
50739;SDS011;36704;52.524;17.580;2023-03-13T09:03:15;61.88;;;45.15;;
50739;SDS011;36704;52.524;17.580;2023-03-13T09:06:06;89.35;;;46.55;;
50739;SDS011;36704;52.524;17.580;2023-03-13T09:08:56;176.27;;;72.97;;
50739;SDS011;36704;52.524;17.580;2023-03-13T09:11:45;55.25;;;23.48;;
50739;SDS011;36704;52.524;17.580;2023-03-13T09:35:25;31.10;;;14.33;;
50739;SDS011;36704;52.524;17.580;2023-03-13T09:38:21;24.30;;;11.68;;
50739;SDS011;36704;52.524;17.580;2023-03-13T09:44:12;49.58;;;18.45;;
50739;SDS011;36704;52.524;17.580;2023-03-13T09:47:00;34.30;;;14.65;;
50739;SDS011;36704;52.524;17.580;2023-03-13T09:49:56;26.08;;;12.05;;
50739;SDS011;36704;52.524;17.580;2023-03-13T09:52:46;59.30;;;19.42;;
50739;SDS011;36704;52.524;17.580;2023-03-13T09:59:46;26.80;;;10.98;;
50739;SDS011;36704;52.524;17.580;2023-03-13T10:02:36;26.23;;;11.57;;
50739;SDS011;36704;52.524;17.580;2023-03-13T10:05:25;26.05;;;11.13;;
50739;SDS011;36704;52.524;17.580;2023-03-13T10:08:33;25.92;;;11.80;;
50739;SDS011;36704;52.524;17.580;2023-03-13T10:11:54;37.08;;;16.85;;
50739;SDS011;36704;52.524;17.580;2023-03-13T10:14:56;22.92;;;9.38;;
50739;SDS011;36704;52.524;17.580;2023-03-13T10:17:51;26.33;;;9.68;;
50739;SDS011;36704;52.524;17.580;2023-03-13T10:20:39;27.52;;;11.85;;
50739;SDS011;36704;52.524;17.580;2023-03-13T10:26:40;25.45;;;10.70;;
50739;SDS011;36704;52.524;17.580;2023-03-13T10:29:28;41.70;;;15.55;;
50739;SDS011;36704;52.524;17.580;2023-03-13T10:32:19;23.13;;;12.63;;
50739;SDS011;36704;52.524;17.580;2023-03-13T10:35:07;29.08;;;12.50;;
50739;SDS011;36704;52.524;17.580;2023-03-13T10:38:03;28.88;;;13.50;;
50739;SDS011;36704;52.524;17.580;2023-03-13T10:40:56;30.60;;;13.32;;
50739;SDS011;36704;52.524;17.580;2023-03-13T10:43:52;35.00;;;13.93;;
50739;SDS011;36704;52.524;17.580;2023-03-13T10:46:49;26.13;;;11.90;;
50739;SDS011;36704;52.524;17.580;2023-03-13T10:49:45;33.25;;;13.98;;
50739;SDS011;36704;52.524;17.580;2023-03-13T10:52:40;23.60;;;11.48;;
50739;SDS011;36704;52.524;17.580;2023-03-13T10:55:30;25.45;;;11.73;;
50739;SDS011;36704;52.524;17.580;2023-03-13T10:58:24;27.70;;;13.15;;
50739;SDS011;36704;52.524;17.580;2023-03-13T11:01:25;31.45;;;14.35;;
50739;SDS011;36704;52.524;17.580;2023-03-13T11:04:18;39.97;;;16.05;;
50739;SDS011;36704;52.524;17.580;2023-03-13T11:10:25;36.22;;;15.57;;
50739;SDS011;36704;52.524;17.580;2023-03-13T11:16:29;40.08;;;19.00;;
50739;SDS011;36704;52.524;17.580;2023-03-13T11:19:19;40.90;;;16.27;;
50739;SDS011;36704;52.524;17.580;2023-03-13T11:25:11;29.98;;;13.15;;
50739;SDS011;36704;52.524;17.580;2023-03-13T11:34:20;41.67;;;18.42;;
50739;SDS011;36704;52.524;17.580;2023-03-13T11:37:11;49.05;;;23.35;;
50739;SDS011;36704;52.524;17.580;2023-03-13T11:46:21;40.58;;;16.42;;
50739;SDS011;36704;52.524;17.580;2023-03-13T11:49:15;42.42;;;18.23;;
50739;SDS011;36704;52.524;17.580;2023-03-13T11:52:17;31.63;;;14.68;;
50739;SDS011;36704;52.524;17.580;2023-03-13T12:01:36;65.05;;;26.45;;
50739;SDS011;36704;52.524;17.580;2023-03-13T12:04:40;115.70;;;34.92;;
50739;SDS011;36704;52.524;17.580;2023-03-13T12:07:49;194.05;;;56.40;;
50739;SDS011;36704;52.524;17.580;2023-03-13T12:14:22;134.80;;;44.40;;
50739;SDS011;36704;52.524;17.580;2023-03-13T12:17:37;190.18;;;49.55;;
50739;SDS011;36704;52.524;17.580;2023-03-13T12:20:37;104.65;;;33.38;;
50739;SDS011;36704;52.524;17.580;2023-03-13T12:26:33;79.22;;;26.33;;
50739;SDS011;36704;52.524;17.580;2023-03-13T12:36:09;61.58;;;21.40;;
50739;SDS011;36704;52.524;17.580;2023-03-13T12:39:06;83.15;;;30.42;;
50739;SDS011;36704;52.524;17.580;2023-03-13T12:45:15;44.25;;;20.13;;
50739;SDS011;36704;52.524;17.580;2023-03-13T13:00:19;49.65;;;21.50;;
50739;SDS011;36704;52.524;17.580;2023-03-13T13:03:14;50.33;;;22.40;;
50739;SDS011;36704;52.524;17.580;2023-03-13T13:06:08;33.42;;;17.50;;
50739;SDS011;36704;52.524;17.580;2023-03-13T13:09:05;34.55;;;17.15;;
50739;SDS011;36704;52.524;17.580;2023-03-13T13:15:10;24.63;;;12.88;;
50739;SDS011;36704;52.524;17.580;2023-03-13T13:18:23;31.60;;;15.23;;
50739;SDS011;36704;52.524;17.580;2023-03-13T13:45:23;23.17;;;12.30;;
50739;SDS011;36704;52.524;17.580;2023-03-13T13:48:27;26.65;;;13.38;;
50739;SDS011;36704;52.524;17.580;2023-03-13T13:51:24;23.73;;;11.07;;
50739;SDS011;36704;52.524;17.580;2023-03-13T14:00:25;18.42;;;10.10;;
50739;SDS011;36704;52.524;17.580;2023-03-13T14:03:20;29.35;;;13.93;;
50739;SDS011;36704;52.524;17.580;2023-03-13T14:06:16;29.50;;;13.50;;
50739;SDS011;36704;52.524;17.580;2023-03-13T14:09:27;19.83;;;9.65;;
50739;SDS011;36704;52.524;17.580;2023-03-13T14:12:33;22.30;;;10.88;;
50739;SDS011;36704;52.524;17.580;2023-03-13T14:15:24;19.98;;;11.50;;
50739;SDS011;36704;52.524;17.580;2023-03-13T14:21:12;23.23;;;11.50;;
50739;SDS011;36704;52.524;17.580;2023-03-13T14:24:14;20.10;;;9.60;;
50739;SDS011;36704;52.524;17.580;2023-03-13T14:30:43;65.97;;;29.65;;
50739;SDS011;36704;52.524;17.580;2023-03-13T14:33:41;51.97;;;20.58;;
50739;SDS011;36704;52.524;17.580;2023-03-13T14:36:47;46.67;;;20.80;;
50739;SDS011;36704;52.524;17.580;2023-03-13T14:40:06;52.92;;;23.58;;
50739;SDS011;36704;52.524;17.580;2023-03-13T14:43:34;37.10;;;18.45;;
50739;SDS011;36704;52.524;17.580;2023-03-13T14:46:33;31.40;;;15.00;;
50739;SDS011;36704;52.524;17.580;2023-03-13T14:50:15;24.42;;;13.27;;
50739;SDS011;36704;52.524;17.580;2023-03-13T14:53:03;23.00;;;12.80;;
50739;SDS011;36704;52.524;17.580;2023-03-13T14:56:13;27.20;;;13.85;;
50739;SDS011;36704;52.524;17.580;2023-03-13T15:05:32;21.15;;;12.45;;
50739;SDS011;36704;52.524;17.580;2023-03-13T15:08:23;47.03;;;26.65;;
50739;SDS011;36704;52.524;17.580;2023-03-13T15:11:24;29.63;;;16.02;;
50739;SDS011;36704;52.524;17.580;2023-03-13T15:14:41;17.92;;;11.25;;
50739;SDS011;36704;52.524;17.580;2023-03-13T15:17:32;23.45;;;12.57;;
50739;SDS011;36704;52.524;17.580;2023-03-13T15:20:21;22.92;;;12.32;;
50739;SDS011;36704;52.524;17.580;2023-03-13T15:23:10;20.58;;;11.88;;
50739;SDS011;36704;52.524;17.580;2023-03-13T15:26:06;23.10;;;12.32;;
50739;SDS011;36704;52.524;17.580;2023-03-13T15:28:58;23.70;;;12.82;;
50739;SDS011;36704;52.524;17.580;2023-03-13T15:31:46;16.25;;;10.07;;
50739;SDS011;36704;52.524;17.580;2023-03-13T15:34:33;18.67;;;10.90;;
50739;SDS011;36704;52.524;17.580;2023-03-13T15:37:29;21.55;;;10.25;;
50739;SDS011;36704;52.524;17.580;2023-03-13T15:40:26;16.80;;;9.13;;
50739;SDS011;36704;52.524;17.580;2023-03-13T15:43:21;15.57;;;9.30;;
50739;SDS011;36704;52.524;17.580;2023-03-13T15:46:17;15.75;;;8.80;;
50739;SDS011;36704;52.524;17.580;2023-03-13T15:49:35;17.65;;;9.93;;
50739;SDS011;36704;52.524;17.580;2023-03-13T15:52:28;18.48;;;9.43;;
50739;SDS011;36704;52.524;17.580;2023-03-13T15:55:17;21.50;;;12.32;;
50739;SDS011;36704;52.524;17.580;2023-03-13T15:58:04;31.85;;;18.70;;
50739;SDS011;36704;52.524;17.580;2023-03-13T16:00:56;77.43;;;36.50;;
50739;SDS011;36704;52.524;17.580;2023-03-13T16:03:46;58.60;;;27.48;;
50739;SDS011;36704;52.524;17.580;2023-03-13T16:06:56;61.38;;;32.92;;
50739;SDS011;36704;52.524;17.580;2023-03-13T16:09:47;52.35;;;30.38;;
50739;SDS011;36704;52.524;17.580;2023-03-13T16:12:45;59.35;;;34.67;;
50739;SDS011;36704;52.524;17.580;2023-03-13T16:15:35;30.30;;;18.30;;
50739;SDS011;36704;52.524;17.580;2023-03-13T16:18:24;39.17;;;20.33;;
50739;SDS011;36704;52.524;17.580;2023-03-13T16:21:17;26.42;;;15.80;;
50739;SDS011;36704;52.524;17.580;2023-03-13T16:24:25;21.85;;;13.52;;
50739;SDS011;36704;52.524;17.580;2023-03-13T16:27:18;35.67;;;18.70;;
50739;SDS011;36704;52.524;17.580;2023-03-13T16:33:09;29.80;;;16.23;;
50739;SDS011;36704;52.524;17.580;2023-03-13T16:35:58;59.35;;;29.85;;
50739;SDS011;36704;52.524;17.580;2023-03-13T16:38:46;39.80;;;21.00;;
50739;SDS011;36704;52.524;17.580;2023-03-13T16:41:36;39.03;;;23.83;;
50739;SDS011;36704;52.524;17.580;2023-03-13T16:44:23;42.67;;;29.30;;
50739;SDS011;36704;52.524;17.580;2023-03-13T16:50:27;38.70;;;25.27;;
50739;SDS011;36704;52.524;17.580;2023-03-13T17:04:05;71.88;;;38.65;;
50739;SDS011;36704;52.524;17.580;2023-03-13T17:14:07;37.65;;;16.73;;
50739;SDS011;36704;52.524;17.580;2023-03-13T17:16:57;45.38;;;24.05;;
50739;SDS011;36704;52.524;17.580;2023-03-13T17:19:52;51.95;;;21.92;;
50739;SDS011;36704;52.524;17.580;2023-03-13T17:22:43;62.72;;;23.48;;
50739;SDS011;36704;52.524;17.580;2023-03-13T17:25:33;29.38;;;14.95;;
50739;SDS011;36704;52.524;17.580;2023-03-13T17:28:45;44.22;;;18.63;;
50739;SDS011;36704;52.524;17.580;2023-03-13T17:31:34;30.33;;;17.83;;
50739;SDS011;36704;52.524;17.580;2023-03-13T17:34:26;39.88;;;20.05;;
50739;SDS011;36704;52.524;17.580;2023-03-13T17:37:20;57.58;;;25.30;;
50739;SDS011;36704;52.524;17.580;2023-03-13T17:43:14;52.47;;;25.63;;
50739;SDS011;36704;52.524;17.580;2023-03-13T17:46:07;65.30;;;33.72;;
50739;SDS011;36704;52.524;17.580;2023-03-13T17:49:02;75.20;;;36.75;;
50739;SDS011;36704;52.524;17.580;2023-03-13T17:51:49;47.75;;;32.42;;
50739;SDS011;36704;52.524;17.580;2023-03-13T17:54:38;44.80;;;27.27;;
50739;SDS011;36704;52.524;17.580;2023-03-13T17:57:26;38.75;;;22.98;;
50739;SDS011;36704;52.524;17.580;2023-03-13T18:00:24;44.88;;;23.98;;
50739;SDS011;36704;52.524;17.580;2023-03-13T18:03:24;41.90;;;22.85;;
50739;SDS011;36704;52.524;17.580;2023-03-13T18:06:45;38.20;;;21.70;;
50739;SDS011;36704;52.524;17.580;2023-03-13T18:09:27;37.80;;;19.17;;
50739;SDS011;36704;52.524;17.580;2023-03-13T18:12:14;42.72;;;27.95;;
50739;SDS011;36704;52.524;17.580;2023-03-13T18:15:06;28.85;;;16.67;;
50739;SDS011;36704;52.524;17.580;2023-03-13T18:17:57;26.45;;;16.65;;
50739;SDS011;36704;52.524;17.580;2023-03-13T18:20:48;23.40;;;14.63;;
50739;SDS011;36704;52.524;17.580;2023-03-13T18:23:38;27.95;;;15.55;;
50739;SDS011;36704;52.524;17.580;2023-03-13T18:26:33;28.05;;;16.55;;
50739;SDS011;36704;52.524;17.580;2023-03-13T18:30:19;29.05;;;16.27;;
50739;SDS011;36704;52.524;17.580;2023-03-13T18:33:07;32.50;;;18.65;;
50739;SDS011;36704;52.524;17.580;2023-03-13T18:36:40;31.75;;;17.92;;
50739;SDS011;36704;52.524;17.580;2023-03-13T18:39:29;31.98;;;18.92;;
50739;SDS011;36704;52.524;17.580;2023-03-13T18:42:26;24.27;;;16.30;;
50739;SDS011;36704;52.524;17.580;2023-03-13T18:46:02;20.63;;;13.02;;
50739;SDS011;36704;52.524;17.580;2023-03-13T18:48:51;24.52;;;13.73;;
50739;SDS011;36704;52.524;17.580;2023-03-13T18:51:45;23.40;;;14.05;;
50739;SDS011;36704;52.524;17.580;2023-03-13T18:54:33;31.92;;;20.17;;
50739;SDS011;36704;52.524;17.580;2023-03-13T18:57:28;27.33;;;14.80;;
50739;SDS011;36704;52.524;17.580;2023-03-13T19:00:19;31.52;;;17.23;;
50739;SDS011;36704;52.524;17.580;2023-03-13T19:03:08;40.67;;;24.05;;
50739;SDS011;36704;52.524;17.580;2023-03-13T19:05:58;33.20;;;20.00;;
50739;SDS011;36704;52.524;17.580;2023-03-13T19:08:48;37.45;;;22.58;;
50739;SDS011;36704;52.524;17.580;2023-03-13T19:11:39;39.90;;;21.88;;
50739;SDS011;36704;52.524;17.580;2023-03-13T19:14:30;27.10;;;16.77;;
50739;SDS011;36704;52.524;17.580;2023-03-13T19:17:23;30.42;;;18.90;;
50739;SDS011;36704;52.524;17.580;2023-03-13T19:20:15;30.20;;;17.35;;
50739;SDS011;36704;52.524;17.580;2023-03-13T19:23:09;35.15;;;19.15;;
50739;SDS011;36704;52.524;17.580;2023-03-13T19:25:55;39.00;;;19.80;;
50739;SDS011;36704;52.524;17.580;2023-03-13T19:28:42;30.98;;;17.38;;
50739;SDS011;36704;52.524;17.580;2023-03-13T19:31:28;29.70;;;15.77;;
50739;SDS011;36704;52.524;17.580;2023-03-13T19:34:19;28.30;;;15.55;;
50739;SDS011;36704;52.524;17.580;2023-03-13T19:37:08;25.85;;;15.00;;
50739;SDS011;36704;52.524;17.580;2023-03-13T19:39:58;23.60;;;14.90;;
50739;SDS011;36704;52.524;17.580;2023-03-13T19:42:47;23.75;;;16.25;;
50739;SDS011;36704;52.524;17.580;2023-03-13T19:45:34;36.90;;;21.77;;
50739;SDS011;36704;52.524;17.580;2023-03-13T19:48:26;34.80;;;17.42;;
50739;SDS011;36704;52.524;17.580;2023-03-13T19:51:14;36.38;;;17.55;;
50739;SDS011;36704;52.524;17.580;2023-03-13T19:54:03;28.10;;;14.82;;
50739;SDS011;36704;52.524;17.580;2023-03-13T19:56:50;34.45;;;19.60;;
50739;SDS011;36704;52.524;17.580;2023-03-13T19:59:39;28.83;;;15.15;;
50739;SDS011;36704;52.524;17.580;2023-03-13T20:02:26;25.85;;;12.95;;
50739;SDS011;36704;52.524;17.580;2023-03-13T20:05:12;31.00;;;14.80;;
50739;SDS011;36704;52.524;17.580;2023-03-13T20:07:59;22.63;;;12.55;;
50739;SDS011;36704;52.524;17.580;2023-03-13T20:10:45;24.23;;;13.60;;
50739;SDS011;36704;52.524;17.580;2023-03-13T20:13:32;26.88;;;13.45;;
50739;SDS011;36704;52.524;17.580;2023-03-13T20:16:20;22.88;;;12.13;;
50739;SDS011;36704;52.524;17.580;2023-03-13T20:19:08;22.30;;;12.13;;
50739;SDS011;36704;52.524;17.580;2023-03-13T20:21:56;23.88;;;12.32;;
50739;SDS011;36704;52.524;17.580;2023-03-13T20:24:45;17.08;;;9.75;;
50739;SDS011;36704;52.524;17.580;2023-03-13T20:27:32;18.00;;;9.80;;
50739;SDS011;36704;52.524;17.580;2023-03-13T20:30:18;20.58;;;9.23;;
50739;SDS011;36704;52.524;17.580;2023-03-13T20:33:05;14.20;;;8.10;;
50739;SDS011;36704;52.524;17.580;2023-03-13T20:35:55;14.52;;;8.15;;
50739;SDS011;36704;52.524;17.580;2023-03-13T20:38:45;15.52;;;10.30;;